sensor_id;sensor_type;location;lat;lon;timestamp;P1;durP1;ratioP1;P2;durP2;ratioP2
50066;SDS011;35952;52.524;13.340;2023-05-10T00:00:54;9.07;;;7.93;;
50066;SDS011;35952;52.524;13.340;2023-05-10T00:03:20;9.13;;;7.90;;
50066;SDS011;35952;52.524;13.340;2023-05-10T00:05:45;13.90;;;8.07;;
50066;SDS011;35952;52.524;13.340;2023-05-10T00:08:11;7.93;;;7.20;;
50066;SDS011;35952;52.524;13.340;2023-05-10T00:10:36;8.50;;;7.70;;
50066;SDS011;35952;52.524;13.340;2023-05-10T00:13:02;9.20;;;8.37;;
50066;SDS011;35952;52.524;13.340;2023-05-10T00:15:28;9.53;;;8.63;;
50066;SDS011;35952;52.524;13.340;2023-05-10T00:17:55;9.10;;;8.27;;
50066;SDS011;35952;52.524;13.340;2023-05-10T00:20:21;8.97;;;8.17;;
50066;SDS011;35952;52.524;13.340;2023-05-10T00:22:47;9.27;;;8.27;;
50066;SDS011;35952;52.524;13.340;2023-05-10T00:25:12;8.60;;;7.80;;
50066;SDS011;35952;52.524;13.340;2023-05-10T00:27:38;8.63;;;7.83;;
50066;SDS011;35952;52.524;13.340;2023-05-10T00:30:03;8.67;;;7.87;;
50066;SDS011;35952;52.524;13.340;2023-05-10T00:32:29;9.10;;;8.30;;
50066;SDS011;35952;52.524;13.340;2023-05-10T00:34:55;8.73;;;8.00;;
50066;SDS011;35952;52.524;13.340;2023-05-10T00:37:21;9.07;;;8.17;;
50066;SDS011;35952;52.524;13.340;2023-05-10T00:39:46;9.60;;;7.73;;
50066;SDS011;35952;52.524;13.340;2023-05-10T00:42:12;8.97;;;7.90;;
50066;SDS011;35952;52.524;13.340;2023-05-10T00:44:37;8.20;;;7.40;;
50066;SDS011;35952;52.524;13.340;2023-05-10T00:47:03;11.17;;;7.50;;
50066;SDS011;35952;52.524;13.340;2023-05-10T00:49:28;9.33;;;8.37;;
50066;SDS011;35952;52.524;13.340;2023-05-10T00:51:54;8.70;;;7.90;;
50066;SDS011;35952;52.524;13.340;2023-05-10T00:54:20;9.80;;;8.70;;
50066;SDS011;35952;52.524;13.340;2023-05-10T00:56:46;9.90;;;9.00;;
50066;SDS011;35952;52.524;13.340;2023-05-10T00:59:14;9.80;;;8.90;;
50066;SDS011;35952;52.524;13.340;2023-05-10T01:01:41;9.17;;;8.43;;
50066;SDS011;35952;52.524;13.340;2023-05-10T01:04:08;9.30;;;8.50;;
50066;SDS011;35952;52.524;13.340;2023-05-10T01:06:35;10.07;;;9.17;;
50066;SDS011;35952;52.524;13.340;2023-05-10T01:09:01;9.50;;;8.20;;
50066;SDS011;35952;52.524;13.340;2023-05-10T01:11:27;9.13;;;8.17;;
50066;SDS011;35952;52.524;13.340;2023-05-10T01:13:55;9.90;;;9.00;;
50066;SDS011;35952;52.524;13.340;2023-05-10T01:16:22;9.87;;;9.00;;
50066;SDS011;35952;52.524;13.340;2023-05-10T01:18:48;8.90;;;8.10;;
50066;SDS011;35952;52.524;13.340;2023-05-10T01:21:21;9.23;;;8.43;;
50066;SDS011;35952;52.524;13.340;2023-05-10T01:24:23;9.57;;;8.63;;
50066;SDS011;35952;52.524;13.340;2023-05-10T01:27:17;12.07;;;10.27;;
50066;SDS011;35952;52.524;13.340;2023-05-10T01:38:18;9.70;;;8.80;;
50066;SDS011;35952;52.524;13.340;2023-05-10T01:40:58;9.90;;;9.00;;
50066;SDS011;35952;52.524;13.340;2023-05-10T01:46:37;10.73;;;9.73;;
50066;SDS011;35952;52.524;13.340;2023-05-10T01:49:08;11.87;;;9.43;;
50066;SDS011;35952;52.524;13.340;2023-05-10T01:51:36;9.30;;;8.40;;
50066;SDS011;35952;52.524;13.340;2023-05-10T01:54:06;9.57;;;7.40;;
50066;SDS011;35952;52.524;13.340;2023-05-10T01:56:34;12.63;;;9.07;;
50066;SDS011;35952;52.524;13.340;2023-05-10T01:59:04;9.50;;;8.20;;
50066;SDS011;35952;52.524;13.340;2023-05-10T02:01:33;9.00;;;7.70;;
50066;SDS011;35952;52.524;13.340;2023-05-10T02:04:02;9.50;;;8.60;;
50066;SDS011;35952;52.524;13.340;2023-05-10T02:06:29;9.37;;;8.23;;
50066;SDS011;35952;52.524;13.340;2023-05-10T02:08:57;8.83;;;8.03;;
50066;SDS011;35952;52.524;13.340;2023-05-10T02:11:23;10.00;;;9.10;;
50066;SDS011;35952;52.524;13.340;2023-05-10T02:13:50;8.80;;;7.90;;
50066;SDS011;35952;52.524;13.340;2023-05-10T02:16:17;9.40;;;8.50;;
50066;SDS011;35952;52.524;13.340;2023-05-10T02:18:47;9.00;;;8.20;;
50066;SDS011;35952;52.524;13.340;2023-05-10T02:21:14;9.57;;;8.67;;
50066;SDS011;35952;52.524;13.340;2023-05-10T02:23:42;9.63;;;8.73;;
50066;SDS011;35952;52.524;13.340;2023-05-10T02:26:08;9.37;;;8.40;;
50066;SDS011;35952;52.524;13.340;2023-05-10T02:28:36;9.40;;;8.50;;
50066;SDS011;35952;52.524;13.340;2023-05-10T02:31:03;9.90;;;9.00;;
50066;SDS011;35952;52.524;13.340;2023-05-10T02:33:30;9.80;;;8.77;;
50066;SDS011;35952;52.524;13.340;2023-05-10T02:35:57;10.13;;;8.70;;
50066;SDS011;35952;52.524;13.340;2023-05-10T02:38:23;8.73;;;7.93;;
50066;SDS011;35952;52.524;13.340;2023-05-10T02:40:50;13.50;;;8.30;;
50066;SDS011;35952;52.524;13.340;2023-05-10T02:43:17;9.13;;;8.33;;
50066;SDS011;35952;52.524;13.340;2023-05-10T02:45:43;9.37;;;8.40;;
50066;SDS011;35952;52.524;13.340;2023-05-10T02:48:13;9.27;;;8.37;;
50066;SDS011;35952;52.524;13.340;2023-05-10T02:50:38;10.30;;;8.30;;
50066;SDS011;35952;52.524;13.340;2023-05-10T02:53:09;8.57;;;7.80;;
50066;SDS011;35952;52.524;13.340;2023-05-10T02:55:40;10.30;;;9.20;;
50066;SDS011;35952;52.524;13.340;2023-05-10T02:58:07;10.90;;;8.20;;
50066;SDS011;35952;52.524;13.340;2023-05-10T03:00:33;9.27;;;8.40;;
50066;SDS011;35952;52.524;13.340;2023-05-10T03:03:00;9.10;;;8.30;;
50066;SDS011;35952;52.524;13.340;2023-05-10T03:05:26;8.63;;;7.90;;
50066;SDS011;35952;52.524;13.340;2023-05-10T03:07:51;8.93;;;8.13;;
50066;SDS011;35952;52.524;13.340;2023-05-10T03:10:18;10.63;;;7.77;;
50066;SDS011;35952;52.524;13.340;2023-05-10T03:18:30;8.83;;;7.93;;
50066;SDS011;35952;52.524;13.340;2023-05-10T03:21:04;11.90;;;8.70;;
50066;SDS011;35952;52.524;13.340;2023-05-10T03:23:35;9.23;;;8.37;;
50066;SDS011;35952;52.524;13.340;2023-05-10T03:26:06;7.83;;;7.13;;
50066;SDS011;35952;52.524;13.340;2023-05-10T03:28:33;9.50;;;8.00;;
50066;SDS011;35952;52.524;13.340;2023-05-10T03:31:00;8.17;;;7.47;;
50066;SDS011;35952;52.524;13.340;2023-05-10T03:33:27;10.57;;;8.17;;
50066;SDS011;35952;52.524;13.340;2023-05-10T03:35:53;8.43;;;7.63;;
50066;SDS011;35952;52.524;13.340;2023-05-10T03:38:18;10.93;;;7.80;;
50066;SDS011;35952;52.524;13.340;2023-05-10T03:40:43;11.90;;;8.50;;
50066;SDS011;35952;52.524;13.340;2023-05-10T03:43:09;9.50;;;8.60;;
50066;SDS011;35952;52.524;13.340;2023-05-10T03:45:34;10.80;;;7.50;;
50066;SDS011;35952;52.524;13.340;2023-05-10T03:48:00;7.27;;;6.73;;
50066;SDS011;35952;52.524;13.340;2023-05-10T03:50:26;12.10;;;8.07;;
50066;SDS011;35952;52.524;13.340;2023-05-10T03:52:51;13.73;;;7.90;;
50066;SDS011;35952;52.524;13.340;2023-05-10T03:55:17;9.33;;;8.07;;
50066;SDS011;35952;52.524;13.340;2023-05-10T03:57:42;7.93;;;7.13;;
50066;SDS011;35952;52.524;13.340;2023-05-10T04:00:08;11.53;;;8.10;;
50066;SDS011;35952;52.524;13.340;2023-05-10T04:02:34;9.20;;;8.17;;
50066;SDS011;35952;52.524;13.340;2023-05-10T04:05:00;9.40;;;7.17;;
50066;SDS011;35952;52.524;13.340;2023-05-10T04:07:26;8.40;;;7.50;;
50066;SDS011;35952;52.524;13.340;2023-05-10T04:09:51;8.00;;;7.30;;
50066;SDS011;35952;52.524;13.340;2023-05-10T04:12:17;8.03;;;7.23;;
50066;SDS011;35952;52.524;13.340;2023-05-10T04:14:42;8.17;;;7.37;;
50066;SDS011;35952;52.524;13.340;2023-05-10T04:17:08;13.27;;;8.40;;
50066;SDS011;35952;52.524;13.340;2023-05-10T04:19:33;8.50;;;7.20;;
50066;SDS011;35952;52.524;13.340;2023-05-10T04:21:59;9.67;;;7.50;;
50066;SDS011;35952;52.524;13.340;2023-05-10T04:24:25;8.13;;;7.40;;
50066;SDS011;35952;52.524;13.340;2023-05-10T04:26:50;9.40;;;7.17;;
50066;SDS011;35952;52.524;13.340;2023-05-10T04:29:16;8.40;;;7.60;;
50066;SDS011;35952;52.524;13.340;2023-05-10T04:31:42;10.13;;;7.13;;
50066;SDS011;35952;52.524;13.340;2023-05-10T04:34:07;8.13;;;7.33;;
50066;SDS011;35952;52.524;13.340;2023-05-10T04:36:33;10.43;;;7.40;;
50066;SDS011;35952;52.524;13.340;2023-05-10T04:39:00;7.47;;;6.77;;
50066;SDS011;35952;52.524;13.340;2023-05-10T04:41:27;7.50;;;6.80;;
50066;SDS011;35952;52.524;13.340;2023-05-10T04:43:53;7.93;;;6.80;;
50066;SDS011;35952;52.524;13.340;2023-05-10T04:46:19;9.33;;;7.43;;
50066;SDS011;35952;52.524;13.340;2023-05-10T04:48:44;10.33;;;7.40;;
50066;SDS011;35952;52.524;13.340;2023-05-10T04:51:10;9.07;;;7.37;;
50066;SDS011;35952;52.524;13.340;2023-05-10T04:53:35;7.50;;;6.77;;
50066;SDS011;35952;52.524;13.340;2023-05-10T04:56:01;20.60;;;8.63;;
50066;SDS011;35952;52.524;13.340;2023-05-10T04:58:26;7.47;;;6.63;;
50066;SDS011;35952;52.524;13.340;2023-05-10T05:00:52;7.70;;;6.93;;
50066;SDS011;35952;52.524;13.340;2023-05-10T05:03:18;6.97;;;6.30;;
50066;SDS011;35952;52.524;13.340;2023-05-10T05:05:43;6.97;;;6.47;;
50066;SDS011;35952;52.524;13.340;2023-05-10T05:08:09;8.63;;;6.90;;
50066;SDS011;35952;52.524;13.340;2023-05-10T05:10:35;7.93;;;6.90;;
50066;SDS011;35952;52.524;13.340;2023-05-10T05:13:00;9.43;;;6.40;;
50066;SDS011;35952;52.524;13.340;2023-05-10T05:15:26;8.80;;;6.07;;
50066;SDS011;35952;52.524;13.340;2023-05-10T05:17:52;10.40;;;7.93;;
50066;SDS011;35952;52.524;13.340;2023-05-10T05:20:17;6.50;;;5.90;;
50066;SDS011;35952;52.524;13.340;2023-05-10T05:22:43;7.17;;;6.23;;
50066;SDS011;35952;52.524;13.340;2023-05-10T05:25:09;6.97;;;5.63;;
50066;SDS011;35952;52.524;13.340;2023-05-10T05:27:36;8.13;;;6.07;;
50066;SDS011;35952;52.524;13.340;2023-05-10T05:30:02;7.80;;;5.70;;
50066;SDS011;35952;52.524;13.340;2023-05-10T05:32:31;8.17;;;5.67;;
50066;SDS011;35952;52.524;13.340;2023-05-10T05:34:57;6.20;;;5.60;;
50066;SDS011;35952;52.524;13.340;2023-05-10T05:37:22;7.40;;;6.27;;
50066;SDS011;35952;52.524;13.340;2023-05-10T05:39:49;6.60;;;5.80;;
50066;SDS011;35952;52.524;13.340;2023-05-10T05:42:15;6.73;;;6.07;;
50066;SDS011;35952;52.524;13.340;2023-05-10T05:44:42;5.50;;;5.10;;
50066;SDS011;35952;52.524;13.340;2023-05-10T05:47:08;10.47;;;5.47;;
50066;SDS011;35952;52.524;13.340;2023-05-10T05:49:34;9.03;;;5.90;;
50066;SDS011;35952;52.524;13.340;2023-05-10T05:52:00;5.57;;;5.00;;
50066;SDS011;35952;52.524;13.340;2023-05-10T05:54:26;5.80;;;5.20;;
50066;SDS011;35952;52.524;13.340;2023-05-10T05:56:55;7.60;;;5.77;;
50066;SDS011;35952;52.524;13.340;2023-05-10T05:59:22;6.97;;;5.47;;
50066;SDS011;35952;52.524;13.340;2023-05-10T06:01:48;4.97;;;4.60;;
50066;SDS011;35952;52.524;13.340;2023-05-10T06:04:13;6.30;;;5.47;;
50066;SDS011;35952;52.524;13.340;2023-05-10T06:06:39;6.67;;;5.67;;
50066;SDS011;35952;52.524;13.340;2023-05-10T06:09:05;5.93;;;5.03;;
50066;SDS011;35952;52.524;13.340;2023-05-10T06:11:30;4.40;;;4.00;;
50066;SDS011;35952;52.524;13.340;2023-05-10T06:13:57;4.80;;;4.37;;
50066;SDS011;35952;52.524;13.340;2023-05-10T06:16:23;5.83;;;5.23;;
50066;SDS011;35952;52.524;13.340;2023-05-10T06:18:48;5.20;;;4.80;;
50066;SDS011;35952;52.524;13.340;2023-05-10T06:21:14;6.43;;;5.83;;
50066;SDS011;35952;52.524;13.340;2023-05-10T06:23:41;6.17;;;5.27;;
50066;SDS011;35952;52.524;13.340;2023-05-10T06:26:06;5.27;;;4.50;;
50066;SDS011;35952;52.524;13.340;2023-05-10T06:28:32;11.80;;;4.70;;
50066;SDS011;35952;52.524;13.340;2023-05-10T06:30:58;7.20;;;5.50;;
50066;SDS011;35952;52.524;13.340;2023-05-10T06:33:24;6.70;;;4.40;;
50066;SDS011;35952;52.524;13.340;2023-05-10T06:35:49;6.83;;;4.87;;
50066;SDS011;35952;52.524;13.340;2023-05-10T06:38:15;4.77;;;4.30;;
50066;SDS011;35952;52.524;13.340;2023-05-10T06:40:41;4.67;;;4.17;;
50066;SDS011;35952;52.524;13.340;2023-05-10T06:43:07;5.77;;;4.63;;
50066;SDS011;35952;52.524;13.340;2023-05-10T06:45:33;14.03;;;5.20;;
50066;SDS011;35952;52.524;13.340;2023-05-10T06:47:58;6.83;;;4.43;;
50066;SDS011;35952;52.524;13.340;2023-05-10T06:50:24;6.30;;;4.10;;
50066;SDS011;35952;52.524;13.340;2023-05-10T06:52:49;4.67;;;4.33;;
50066;SDS011;35952;52.524;13.340;2023-05-10T06:55:15;4.53;;;3.87;;
50066;SDS011;35952;52.524;13.340;2023-05-10T06:57:40;5.23;;;4.77;;
50066;SDS011;35952;52.524;13.340;2023-05-10T07:00:06;7.70;;;4.30;;
50066;SDS011;35952;52.524;13.340;2023-05-10T07:02:32;4.13;;;3.73;;
50066;SDS011;35952;52.524;13.340;2023-05-10T07:04:58;4.53;;;3.70;;
50066;SDS011;35952;52.524;13.340;2023-05-10T07:07:23;5.33;;;4.80;;
50066;SDS011;35952;52.524;13.340;2023-05-10T07:09:49;4.30;;;3.90;;
50066;SDS011;35952;52.524;13.340;2023-05-10T07:12:15;4.87;;;4.13;;
50066;SDS011;35952;52.524;13.340;2023-05-10T07:14:40;5.70;;;3.73;;
50066;SDS011;35952;52.524;13.340;2023-05-10T07:17:06;7.67;;;3.77;;
50066;SDS011;35952;52.524;13.340;2023-05-10T07:19:31;4.50;;;4.10;;
50066;SDS011;35952;52.524;13.340;2023-05-10T07:21:57;4.10;;;3.80;;
50066;SDS011;35952;52.524;13.340;2023-05-10T07:27:02;4.83;;;4.13;;
50066;SDS011;35952;52.524;13.340;2023-05-10T07:29:27;9.63;;;4.03;;
50066;SDS011;35952;52.524;13.340;2023-05-10T07:31:53;6.50;;;3.63;;
50066;SDS011;35952;52.524;13.340;2023-05-10T07:34:19;5.17;;;4.40;;
50066;SDS011;35952;52.524;13.340;2023-05-10T07:36:44;6.33;;;3.77;;
50066;SDS011;35952;52.524;13.340;2023-05-10T07:39:10;5.30;;;4.07;;
50066;SDS011;35952;52.524;13.340;2023-05-10T07:41:35;4.60;;;4.20;;
50066;SDS011;35952;52.524;13.340;2023-05-10T07:44:02;5.87;;;4.40;;
50066;SDS011;35952;52.524;13.340;2023-05-10T07:46:28;4.57;;;4.17;;
50066;SDS011;35952;52.524;13.340;2023-05-10T07:48:54;4.33;;;3.93;;
50066;SDS011;35952;52.524;13.340;2023-05-10T07:51:19;4.27;;;3.67;;
50066;SDS011;35952;52.524;13.340;2023-05-10T07:53:45;4.87;;;3.83;;
50066;SDS011;35952;52.524;13.340;2023-05-10T07:56:21;4.47;;;3.90;;
50066;SDS011;35952;52.524;13.340;2023-05-10T07:58:54;6.40;;;4.57;;
50066;SDS011;35952;52.524;13.340;2023-05-10T08:01:20;4.90;;;3.40;;
50066;SDS011;35952;52.524;13.340;2023-05-10T08:03:47;5.70;;;4.50;;
50066;SDS011;35952;52.524;13.340;2023-05-10T08:06:13;4.07;;;3.60;;
50066;SDS011;35952;52.524;13.340;2023-05-10T08:08:42;4.40;;;4.00;;
50066;SDS011;35952;52.524;13.340;2023-05-10T08:11:08;4.13;;;3.80;;
50066;SDS011;35952;52.524;13.340;2023-05-10T08:13:33;3.60;;;3.40;;
50066;SDS011;35952;52.524;13.340;2023-05-10T08:15:59;3.93;;;3.63;;
50066;SDS011;35952;52.524;13.340;2023-05-10T08:18:25;4.47;;;3.87;;
50066;SDS011;35952;52.524;13.340;2023-05-10T08:20:51;4.37;;;3.53;;
50066;SDS011;35952;52.524;13.340;2023-05-10T08:23:16;8.60;;;3.90;;
50066;SDS011;35952;52.524;13.340;2023-05-10T08:25:42;4.90;;;3.87;;
50066;SDS011;35952;52.524;13.340;2023-05-10T08:28:07;3.93;;;3.63;;
50066;SDS011;35952;52.524;13.340;2023-05-10T08:30:33;9.20;;;5.60;;
50066;SDS011;35952;52.524;13.340;2023-05-10T08:32:58;4.90;;;4.40;;
50066;SDS011;35952;52.524;13.340;2023-05-10T08:35:24;6.00;;;4.50;;
50066;SDS011;35952;52.524;13.340;2023-05-10T08:37:50;7.10;;;3.90;;
50066;SDS011;35952;52.524;13.340;2023-05-10T08:40:15;6.23;;;4.10;;
50066;SDS011;35952;52.524;13.340;2023-05-10T08:42:45;4.20;;;3.90;;
50066;SDS011;35952;52.524;13.340;2023-05-10T08:45:32;9.23;;;4.40;;
50066;SDS011;35952;52.524;13.340;2023-05-10T08:48:01;8.63;;;4.00;;
50066;SDS011;35952;52.524;13.340;2023-05-10T08:50:29;4.70;;;3.80;;
50066;SDS011;35952;52.524;13.340;2023-05-10T08:52:57;6.07;;;4.30;;
50066;SDS011;35952;52.524;13.340;2023-05-10T08:55:24;6.37;;;3.90;;
50066;SDS011;35952;52.524;13.340;2023-05-10T08:57:50;4.30;;;3.70;;
50066;SDS011;35952;52.524;13.340;2023-05-10T09:00:16;4.30;;;3.90;;
50066;SDS011;35952;52.524;13.340;2023-05-10T09:02:43;4.40;;;4.00;;
50066;SDS011;35952;52.524;13.340;2023-05-10T09:05:10;7.20;;;4.00;;
50066;SDS011;35952;52.524;13.340;2023-05-10T09:07:37;4.13;;;3.50;;
50066;SDS011;35952;52.524;13.340;2023-05-10T09:10:03;4.83;;;4.43;;
50066;SDS011;35952;52.524;13.340;2023-05-10T09:12:29;4.90;;;3.67;;
50066;SDS011;35952;52.524;13.340;2023-05-10T09:14:55;4.57;;;3.60;;
50066;SDS011;35952;52.524;13.340;2023-05-10T09:17:23;5.40;;;3.67;;
50066;SDS011;35952;52.524;13.340;2023-05-10T09:19:50;4.97;;;4.20;;
50066;SDS011;35952;52.524;13.340;2023-05-10T09:22:23;5.53;;;3.70;;
50066;SDS011;35952;52.524;13.340;2023-05-10T09:25:02;4.20;;;3.90;;
50066;SDS011;35952;52.524;13.340;2023-05-10T09:27:36;4.33;;;3.93;;
50066;SDS011;35952;52.524;13.340;2023-05-10T09:30:03;4.83;;;3.70;;
50066;SDS011;35952;52.524;13.340;2023-05-10T09:32:37;8.50;;;3.60;;
50066;SDS011;35952;52.524;13.340;2023-05-10T09:35:14;6.10;;;4.07;;
50066;SDS011;35952;52.524;13.340;2023-05-10T09:37:41;6.10;;;4.00;;
50066;SDS011;35952;52.524;13.340;2023-05-10T09:40:27;5.13;;;4.63;;
50066;SDS011;35952;52.524;13.340;2023-05-10T09:42:54;5.40;;;4.27;;
50066;SDS011;35952;52.524;13.340;2023-05-10T09:45:22;4.50;;;4.10;;
50066;SDS011;35952;52.524;13.340;2023-05-10T09:47:49;4.40;;;3.87;;
50066;SDS011;35952;52.524;13.340;2023-05-10T09:50:14;6.07;;;3.80;;
50066;SDS011;35952;52.524;13.340;2023-05-10T09:52:47;5.83;;;4.37;;
50066;SDS011;35952;52.524;13.340;2023-05-10T09:55:14;4.73;;;3.87;;
50066;SDS011;35952;52.524;13.340;2023-05-10T09:57:40;4.90;;;4.50;;
50066;SDS011;35952;52.524;13.340;2023-05-10T10:00:06;4.13;;;3.83;;
50066;SDS011;35952;52.524;13.340;2023-05-10T10:02:32;4.27;;;3.87;;
50066;SDS011;35952;52.524;13.340;2023-05-10T10:04:59;3.63;;;3.33;;
50066;SDS011;35952;52.524;13.340;2023-05-10T10:07:26;5.07;;;4.57;;
50066;SDS011;35952;52.524;13.340;2023-05-10T10:09:52;4.30;;;4.00;;
50066;SDS011;35952;52.524;13.340;2023-05-10T10:12:18;5.60;;;4.00;;
50066;SDS011;35952;52.524;13.340;2023-05-10T10:14:46;5.07;;;3.17;;
50066;SDS011;35952;52.524;13.340;2023-05-10T10:17:13;4.20;;;3.60;;
50066;SDS011;35952;52.524;13.340;2023-05-10T10:19:38;4.73;;;3.43;;
50066;SDS011;35952;52.524;13.340;2023-05-10T10:22:05;4.33;;;3.80;;
50066;SDS011;35952;52.524;13.340;2023-05-10T10:24:30;8.40;;;3.90;;
50066;SDS011;35952;52.524;13.340;2023-05-10T10:26:57;5.23;;;4.07;;
50066;SDS011;35952;52.524;13.340;2023-05-10T10:29:36;8.40;;;3.80;;
50066;SDS011;35952;52.524;13.340;2023-05-10T10:32:10;3.80;;;3.50;;
50066;SDS011;35952;52.524;13.340;2023-05-10T10:34:46;5.80;;;3.80;;
50066;SDS011;35952;52.524;13.340;2023-05-10T10:37:12;8.00;;;3.50;;
50066;SDS011;35952;52.524;13.340;2023-05-10T10:39:38;3.90;;;3.70;;
50066;SDS011;35952;52.524;13.340;2023-05-10T10:42:04;7.63;;;4.87;;
50066;SDS011;35952;52.524;13.340;2023-05-10T10:47:06;7.83;;;6.60;;
50066;SDS011;35952;52.524;13.340;2023-05-10T10:52:27;4.67;;;4.17;;
50066;SDS011;35952;52.524;13.340;2023-05-10T11:02:47;4.47;;;4.07;;
50066;SDS011;35952;52.524;13.340;2023-05-10T11:08:15;5.23;;;4.10;;
50066;SDS011;35952;52.524;13.340;2023-05-10T11:10:51;4.90;;;4.00;;
50066;SDS011;35952;52.524;13.340;2023-05-10T11:13:17;8.23;;;3.73;;
50066;SDS011;35952;52.524;13.340;2023-05-10T11:15:56;11.43;;;4.47;;
50066;SDS011;35952;52.524;13.340;2023-05-10T11:18:24;6.57;;;3.93;;
50066;SDS011;35952;52.524;13.340;2023-05-10T11:20:51;6.60;;;3.87;;
50066;SDS011;35952;52.524;13.340;2023-05-10T11:23:18;6.13;;;3.93;;
50066;SDS011;35952;52.524;13.340;2023-05-10T11:25:45;5.83;;;3.80;;
50066;SDS011;35952;52.524;13.340;2023-05-10T11:28:11;6.80;;;3.70;;
50066;SDS011;35952;52.524;13.340;2023-05-10T11:30:38;4.13;;;3.83;;
50066;SDS011;35952;52.524;13.340;2023-05-10T11:33:05;6.07;;;4.50;;
50066;SDS011;35952;52.524;13.340;2023-05-10T11:35:31;5.50;;;3.50;;
50066;SDS011;35952;52.524;13.340;2023-05-10T11:38:04;5.57;;;4.03;;
50066;SDS011;35952;52.524;13.340;2023-05-10T11:40:34;4.27;;;3.87;;
50066;SDS011;35952;52.524;13.340;2023-05-10T11:43:00;5.83;;;3.93;;
50066;SDS011;35952;52.524;13.340;2023-05-10T11:45:26;7.73;;;3.90;;
50066;SDS011;35952;52.524;13.340;2023-05-10T11:47:53;4.07;;;3.67;;
50066;SDS011;35952;52.524;13.340;2023-05-10T11:50:19;4.07;;;3.73;;
50066;SDS011;35952;52.524;13.340;2023-05-10T11:52:45;9.63;;;4.03;;
50066;SDS011;35952;52.524;13.340;2023-05-10T11:55:16;6.67;;;3.30;;
50066;SDS011;35952;52.524;13.340;2023-05-10T11:57:41;4.60;;;4.20;;
50066;SDS011;35952;52.524;13.340;2023-05-10T12:00:09;3.50;;;3.20;;
50066;SDS011;35952;52.524;13.340;2023-05-10T12:02:36;4.80;;;3.63;;
50066;SDS011;35952;52.524;13.340;2023-05-10T12:05:02;6.83;;;3.90;;
50066;SDS011;35952;52.524;13.340;2023-05-10T12:07:28;4.37;;;3.97;;
50066;SDS011;35952;52.524;13.340;2023-05-10T12:10:06;6.70;;;3.80;;
50066;SDS011;35952;52.524;13.340;2023-05-10T12:12:40;4.03;;;3.40;;
50066;SDS011;35952;52.524;13.340;2023-05-10T12:15:10;3.40;;;3.20;;
50066;SDS011;35952;52.524;13.340;2023-05-10T12:17:38;3.67;;;3.30;;
50066;SDS011;35952;52.524;13.340;2023-05-10T12:20:18;4.10;;;3.50;;
50066;SDS011;35952;52.524;13.340;2023-05-10T12:22:56;7.73;;;3.60;;
50066;SDS011;35952;52.524;13.340;2023-05-10T12:25:23;11.83;;;3.80;;
50066;SDS011;35952;52.524;13.340;2023-05-10T12:27:54;3.97;;;3.67;;
50066;SDS011;35952;52.524;13.340;2023-05-10T12:30:25;3.77;;;3.40;;
50066;SDS011;35952;52.524;13.340;2023-05-10T12:33:08;5.60;;;4.03;;
50066;SDS011;35952;52.524;13.340;2023-05-10T12:35:53;5.50;;;3.60;;
50066;SDS011;35952;52.524;13.340;2023-05-10T12:38:27;5.30;;;3.73;;
50066;SDS011;35952;52.524;13.340;2023-05-10T12:41:01;4.03;;;3.27;;
50066;SDS011;35952;52.524;13.340;2023-05-10T12:43:28;3.73;;;3.43;;
50066;SDS011;35952;52.524;13.340;2023-05-10T12:45:54;6.10;;;3.97;;
50066;SDS011;35952;52.524;13.340;2023-05-10T12:48:20;6.20;;;3.70;;
50066;SDS011;35952;52.524;13.340;2023-05-10T12:50:46;4.23;;;3.93;;
50066;SDS011;35952;52.524;13.340;2023-05-10T12:53:13;6.23;;;4.00;;
50066;SDS011;35952;52.524;13.340;2023-05-10T12:55:40;4.00;;;3.70;;
50066;SDS011;35952;52.524;13.340;2023-05-10T12:58:06;4.73;;;4.20;;
50066;SDS011;35952;52.524;13.340;2023-05-10T13:00:32;5.60;;;3.97;;
50066;SDS011;35952;52.524;13.340;2023-05-10T13:02:57;5.90;;;4.17;;
50066;SDS011;35952;52.524;13.340;2023-05-10T13:05:23;6.90;;;4.00;;
50066;SDS011;35952;52.524;13.340;2023-05-10T13:07:48;7.60;;;5.07;;
50066;SDS011;35952;52.524;13.340;2023-05-10T13:10:14;7.40;;;4.30;;
50066;SDS011;35952;52.524;13.340;2023-05-10T13:13:37;3.30;;;3.10;;
50066;SDS011;35952;52.524;13.340;2023-05-10T13:16:03;7.33;;;5.00;;
50066;SDS011;35952;52.524;13.340;2023-05-10T13:18:28;6.10;;;5.60;;
50066;SDS011;35952;52.524;13.340;2023-05-10T13:20:54;5.07;;;3.20;;
50066;SDS011;35952;52.524;13.340;2023-05-10T13:23:20;3.67;;;3.37;;
50066;SDS011;35952;52.524;13.340;2023-05-10T13:25:46;5.03;;;3.90;;
50066;SDS011;35952;52.524;13.340;2023-05-10T13:28:11;11.73;;;4.77;;
50066;SDS011;35952;52.524;13.340;2023-05-10T13:30:39;8.83;;;4.37;;
50066;SDS011;35952;52.524;13.340;2023-05-10T13:33:05;6.20;;;4.17;;
50066;SDS011;35952;52.524;13.340;2023-05-10T13:35:30;4.30;;;4.00;;
50066;SDS011;35952;52.524;13.340;2023-05-10T13:37:56;5.17;;;3.77;;
50066;SDS011;35952;52.524;13.340;2023-05-10T13:40:22;5.80;;;3.57;;
50066;SDS011;35952;52.524;13.340;2023-05-10T13:42:48;10.70;;;3.67;;
50066;SDS011;35952;52.524;13.340;2023-05-10T13:45:13;5.53;;;3.53;;
50066;SDS011;35952;52.524;13.340;2023-05-10T13:47:39;6.87;;;3.97;;
50066;SDS011;35952;52.524;13.340;2023-05-10T13:50:04;3.00;;;2.80;;
50066;SDS011;35952;52.524;13.340;2023-05-10T13:52:30;6.50;;;4.80;;
50066;SDS011;35952;52.524;13.340;2023-05-10T13:54:56;6.37;;;5.80;;
50066;SDS011;35952;52.524;13.340;2023-05-10T13:57:22;4.60;;;3.67;;
50066;SDS011;35952;52.524;13.340;2023-05-10T13:59:47;3.73;;;3.30;;
50066;SDS011;35952;52.524;13.340;2023-05-10T14:02:13;4.90;;;4.50;;
50066;SDS011;35952;52.524;13.340;2023-05-10T14:04:38;3.33;;;2.97;;
50066;SDS011;35952;52.524;13.340;2023-05-10T14:07:04;3.47;;;3.27;;
50066;SDS011;35952;52.524;13.340;2023-05-10T14:09:30;6.63;;;5.57;;
50066;SDS011;35952;52.524;13.340;2023-05-10T14:11:55;4.83;;;3.87;;
50066;SDS011;35952;52.524;13.340;2023-05-10T14:14:21;5.00;;;4.50;;
50066;SDS011;35952;52.524;13.340;2023-05-10T14:16:46;6.60;;;4.13;;
50066;SDS011;35952;52.524;13.340;2023-05-10T14:19:12;5.23;;;3.50;;
50066;SDS011;35952;52.524;13.340;2023-05-10T14:21:37;5.33;;;3.83;;
50066;SDS011;35952;52.524;13.340;2023-05-10T14:24:03;4.27;;;3.87;;
50066;SDS011;35952;52.524;13.340;2023-05-10T14:26:29;4.00;;;3.70;;
50066;SDS011;35952;52.524;13.340;2023-05-10T14:28:58;6.27;;;3.93;;
50066;SDS011;35952;52.524;13.340;2023-05-10T14:31:24;4.90;;;4.03;;
50066;SDS011;35952;52.524;13.340;2023-05-10T14:33:50;25.43;;;22.90;;
50066;SDS011;35952;52.524;13.340;2023-05-10T14:36:18;6.20;;;4.70;;
50066;SDS011;35952;52.524;13.340;2023-05-10T14:41:38;4.70;;;3.47;;
50066;SDS011;35952;52.524;13.340;2023-05-10T14:44:05;5.03;;;3.77;;
50066;SDS011;35952;52.524;13.340;2023-05-10T14:46:31;8.20;;;4.00;;
50066;SDS011;35952;52.524;13.340;2023-05-10T14:48:57;3.53;;;3.30;;
50066;SDS011;35952;52.524;13.340;2023-05-10T14:51:22;6.90;;;6.20;;
50066;SDS011;35952;52.524;13.340;2023-05-10T14:53:48;5.03;;;4.63;;
50066;SDS011;35952;52.524;13.340;2023-05-10T14:56:14;9.20;;;8.07;;
50066;SDS011;35952;52.524;13.340;2023-05-10T14:58:40;4.20;;;3.90;;
50066;SDS011;35952;52.524;13.340;2023-05-10T15:01:05;4.57;;;4.07;;
50066;SDS011;35952;52.524;13.340;2023-05-10T15:03:31;8.80;;;8.00;;
50066;SDS011;35952;52.524;13.340;2023-05-10T15:05:56;4.20;;;3.30;;
50066;SDS011;35952;52.524;13.340;2023-05-10T15:08:22;4.13;;;3.83;;
50066;SDS011;35952;52.524;13.340;2023-05-10T15:10:51;5.20;;;4.70;;
50066;SDS011;35952;52.524;13.340;2023-05-10T15:13:16;4.53;;;4.13;;